createdAt,value
2023-01-19T01:09:31.880Z,101179.84
2023-01-19T20:12:01.065Z,100701.19
2023-01-19T20:14:31.894Z,100700.38
2023-01-19T20:17:02.316Z,100687.00
2023-01-19T20:19:33.813Z,100686.34
2023-01-19T20:22:04.104Z,100680.84
2023-01-19T20:24:34.523Z,100679.63
2023-01-19T20:27:04.759Z,100679.34
2023-01-19T20:29:35.459Z,100687.47
2023-01-19T20:32:06.557Z,100673.44
2023-01-19T20:34:37.792Z,100668.19
2023-01-19T20:37:08.918Z,100653.06
2023-01-19T20:39:39.537Z,100649.53
2023-01-19T20:42:14.851Z,100651.78
2023-01-19T20:44:45.504Z,100641.75
2023-01-19T20:47:16.048Z,100636.25
2023-01-19T20:49:46.544Z,100634.69
2023-01-19T20:52:17.171Z,100637.22
2023-01-19T20:54:47.771Z,100634.59
2023-01-19T20:57:18.319Z,100642.47
2023-01-19T20:59:48.811Z,100638.44
2023-01-19T21:02:19.802Z,100638.91
2023-01-19T21:04:54.318Z,100635.53
2023-01-19T21:07:24.772Z,100637.91
2023-01-19T21:09:55.659Z,100639.69
2023-01-19T21:12:26.372Z,100642.34
2023-01-19T21:14:56.952Z,100642.75
2023-01-19T21:17:27.174Z,100642.59
2023-01-19T21:19:57.659Z,100650.69
2023-01-19T21:22:28.984Z,100648.09
2023-01-19T21:24:59.958Z,100647.81
2023-01-19T21:27:30.773Z,100648.69
2023-01-19T21:30:03.406Z,100650.88
2023-01-19T21:32:33.888Z,100645.19
2023-01-19T21:35:04.869Z,100651.44
2023-01-19T21:37:35.879Z,100648.13
2023-01-19T21:40:07.256Z,100648.41
2023-01-19T21:42:37.704Z,100652.28
2023-01-19T21:45:10.840Z,100660.66
2023-01-19T21:47:41.699Z,100661.03
2023-01-19T21:50:12.859Z,100653.72
2023-01-19T21:52:43.751Z,100660.44
2023-01-19T21:55:14.758Z,100669.09
2023-01-19T21:57:45.675Z,100671.31
2023-01-19T22:00:16.440Z,100669.25
2023-01-19T22:03:02.374Z,100669.25
2023-01-19T22:05:38.407Z,100673.06
2023-01-19T22:08:09.725Z,100665.78
2023-01-19T22:10:40.656Z,100664.06
2023-01-19T22:13:11.576Z,100663.50
2023-01-19T22:15:42.223Z,100665.81
2023-01-19T22:18:13.249Z,100663.16
2023-01-19T22:20:44.505Z,100678.66
2023-01-19T22:23:15.453Z,100669.63
2023-01-19T22:25:46.963Z,100674.72
2023-01-19T22:28:17.998Z,100677.69
2023-01-19T22:30:49.455Z,100682.44
2023-01-19T22:33:20.669Z,100684.22
2023-01-19T22:35:51.760Z,100692.63
2023-01-19T22:38:23.468Z,100689.88
2023-01-19T22:40:53.997Z,100686.81
2023-01-19T22:43:25.309Z,100678.81
2023-01-19T22:45:56.970Z,100690.13
2023-01-19T22:48:29.271Z,100689.00
2023-01-19T22:50:59.681Z,100683.19
2023-01-19T22:53:33.712Z,100686.44
2023-01-19T22:56:15.004Z,100697.19
2023-01-19T22:58:47.999Z,100699.03
2023-01-19T23:01:24.918Z,100703.59
2023-01-19T23:03:57.814Z,100711.97
2023-01-19T23:06:31.401Z,100717.78
2023-01-19T23:09:08.206Z,100719.94
2023-01-19T23:11:44.449Z,100720.88
2023-01-19T23:14:19.222Z,100715.22
2023-01-19T23:16:49.997Z,100715.19
2023-01-19T23:19:21.989Z,100716.47
2023-01-19T23:21:54.124Z,100722.09
2023-01-19T23:24:25.026Z,100722.13
2023-01-19T23:26:55.602Z,100733.56
2023-01-19T23:29:26.424Z,100735.56
2023-01-19T23:31:57.477Z,100747.94
2023-01-19T23:34:28.395Z,100743.56
2023-01-19T23:36:58.538Z,100747.34
2023-01-19T23:39:29.551Z,100748.06
2023-01-19T23:42:01.450Z,100756.91
2023-01-19T23:44:33.771Z,100754.22
2023-01-19T23:47:05.538Z,100756.03
2023-01-19T23:49:37.406Z,100750.34
2023-01-19T23:52:08.705Z,100758.66
2023-01-19T23:54:40.136Z,100762.00
2023-01-19T23:57:10.659Z,100758.97
2023-01-19T23:59:42.614Z,100762.97
